Bachu, China
Current Conditions -  °F | °C
As of 3:00 AM on Wednesday 22 Oct 2014 (Local Time) from ZWSH Reporting Station
NA  
Wind Chill: 57°   Ceiling: NA
Heat Index: 57°   Visibility: 6mi
Dew Point: 28°   Wind: 9mph
Humidity: 33%   Direction: 300°WNW
Pressure: 30.21"   Gusts: NA
Location:  39.8°N, 78.57°E
Report Text: ZWSH 211900Z AUTO 30004MPS 9000 14/M02 Q1023
Loading
Personal Weather Stations






























Interactive Weather Map
Tropical Storm Tracking
New forecast layout! Learn more

10-Day Weather Forecast

Advertisements
Track Severe Weather on mobile